Time;durP1;ratioP1;P1;durP2;ratioP2;P2;SDS_P1;SDS_P2;PMS_P1;PMS_P2;Temp;Humidity;BMP_temperature;BMP_pressure;BME280_temperature;BME280_humidity;BME280_pressure;Samples;Min_cycle;Max_cycle;Signal;HPM_P1;HPM_P2
2022/01/22 00:02:08;;;;;;;;;;;;;;;21.53;35.87;103501.75;7293947;19;153373;-51
2022/01/22 00:04:39;;;;;;;;;;;;;;;21.53;35.82;103496.94;7286300;19;151857;-51
2022/01/22 00:07:06;;;;;;;;;;;;;;;21.54;35.78;103498.66;7286864;19;152178;-52
2022/01/22 00:09:52;;;;;;;;;;;;;;;21.54;35.49;103490.22;7284782;19;154060;-52
2022/01/22 00:12:32;;;;;;;;;;;;;;;21.54;35.49;103493.03;7288671;19;151809;-52
2022/01/22 00:14:59;;;;;;;;;;;;;;;21.54;35.92;103494.97;7287218;19;152712;-51
2022/01/22 00:17:26;;;;;;;;;;;;;;;21.53;35.43;103496.13;7287984;19;153476;-52
2022/01/22 00:19:54;;;;;;;;;;;;;;;21.52;35.44;103497.22;7284251;19;152252;-53
2022/01/22 00:22:26;;;;;;;;;;;;;;;21.51;35.63;103498.31;7286613;19;153697;-51
2022/01/22 00:24:57;;;;;;;;;;;;;;;21.50;35.80;103497.47;7293074;19;154176;-52
2022/01/22 00:27:25;;;;;;;;;;;;;;;21.49;35.86;103492.06;7285688;19;153529;-51
2022/01/22 00:29:54;;;;;;;;;;;;;;;21.47;35.85;103492.34;7284513;19;154673;-51
2022/01/22 00:32:25;;;;;;;;;;;;;;;21.47;35.38;103486.72;7286082;19;151840;-51
2022/01/22 00:35:09;;;;;;;;;;;;;;;21.45;35.67;103486.09;7282313;19;153522;-51
2022/01/22 00:37:41;;;;;;;;;;;;;;;21.43;35.40;103484.66;7286877;19;153301;-51
2022/01/22 00:40:13;;;;;;;;;;;;;;;21.40;35.75;103486.00;7285132;19;151704;-51
2022/01/22 00:42:48;;;;;;;;;;;;;;;21.37;35.64;103482.84;7284455;19;153717;-52
2022/01/22 00:45:16;;;;;;;;;;;;;;;21.34;35.49;103478.59;7283018;19;153385;-52
2022/01/22 00:47:45;;;;;;;;;;;;;;;21.32;35.87;103480.78;7292135;19;151552;-51
2022/01/22 00:50:17;;;;;;;;;;;;;;;21.29;35.61;103467.25;7284041;19;152431;-51
2022/01/22 00:52:51;;;;;;;;;;;;;;;21.28;35.80;103479.59;7287268;19;153056;-52
2022/01/22 00:55:18;;;;;;;;;;;;;;;21.25;35.76;103471.69;7286742;19;152485;-52
2022/01/22 00:57:44;;;;;;;;;;;;;;;21.22;36.02;103473.03;7281207;19;153863;-51
2022/01/22 01:00:13;;;;;;;;;;;;;;;21.19;36.12;103472.69;7284254;19;152410;-52
2022/01/22 01:02:41;;;;;;;;;;;;;;;21.16;36.05;103474.03;7282815;19;152041;-52
2022/01/22 01:05:10;;;;;;;;;;;;;;;21.13;36.00;103473.66;7285626;19;153251;-51
2022/01/22 01:07:37;;;;;;;;;;;;;;;21.11;36.15;103473.91;7284269;19;152248;-51
2022/01/22 01:10:05;;;;;;;;;;;;;;;21.07;35.92;103478.34;7287647;19;153476;-52
2022/01/22 01:12:33;;;;;;;;;;;;;;;21.06;36.30;103472.94;7283127;19;152255;-52
2022/01/22 01:36:20;;;;;;;;;;;;;;;20.75;36.54;103449.84;7284293;19;152639;-51
2022/01/22 01:38:53;;;;;;;;;;;;;;;20.72;36.85;103447.53;7280766;19;152291;-51
2022/01/22 01:41:31;;;;;;;;;;;;;;;20.69;36.85;103448.03;7285410;19;151632;-51
2022/01/22 01:43:59;;;;;;;;;;;;;;;20.67;36.75;103443.78;7274291;19;152785;-52
2022/01/22 01:46:30;;;;;;;;;;;;;;;20.63;36.90;103451.81;7275729;19;153288;-51
2022/01/22 01:48:58;;;;;;;;;;;;;;;20.59;36.63;103450.59;7279136;19;152426;-52
2022/01/22 01:51:28;;;;;;;;;;;;;;;20.56;36.86;103450.25;7275061;19;153744;-52
2022/01/22 01:54:06;;;;;;;;;;;;;;;20.51;36.98;103448.19;7279405;19;155704;-51
2022/01/22 01:59:12;;;;;;;;;;;;;;;20.45;36.95;103440.75;7280131;19;154141;-51
2022/01/22 02:01:39;;;;;;;;;;;;;;;20.41;36.92;103446.00;7268940;19;153238;-51
2022/01/22 02:04:13;;;;;;;;;;;;;;;20.39;37.22;103438.94;7272671;19;153453;-51
2022/01/22 02:06:40;;;;;;;;;;;;;;;20.35;37.25;103440.53;7273152;19;153908;-51
2022/01/22 02:09:11;;;;;;;;;;;;;;;20.30;37.53;103444.09;7273510;19;151742;-51
2022/01/22 02:11:45;;;;;;;;;;;;;;;20.26;37.15;103442.00;7278098;19;154850;-51
2022/01/22 02:25:18;;;;;;;;;;;;;;;20.10;37.56;103453.94;7281546;19;151976;-52
2022/01/22 02:27:45;;;;;;;;;;;;;;;20.05;37.51;103446.25;7278718;19;153225;-51
2022/01/22 02:30:23;;;;;;;;;;;;;;;20.04;37.65;103452.09;7280733;19;153015;-52
2022/01/22 02:33:27;;;;;;;;;;;;;;;20.08;37.45;103447.75;7281256;19;153823;-52
2022/01/22 02:41:24;;;;;;;;;;;;;;;19.94;37.90;103447.94;7288105;19;152100;-52
2022/01/22 02:43:55;;;;;;;;;;;;;;;19.88;38.06;103446.16;7280436;19;152751;-51
2022/01/22 02:46:26;;;;;;;;;;;;;;;19.87;38.06;103441.63;7280118;19;152620;-52
2022/01/22 02:48:55;;;;;;;;;;;;;;;19.84;37.91;103444.06;7276718;19;152911;-52
2022/01/22 02:51:23;;;;;;;;;;;;;;;19.82;38.38;103432.22;7279246;19;151834;-51
2022/01/22 02:53:55;;;;;;;;;;;;;;;19.79;37.97;103425.16;7277655;19;152270;-51
2022/01/22 02:56:24;;;;;;;;;;;;;;;19.75;38.19;103431.50;7274944;19;153447;-51
2022/01/22 02:58:56;;;;;;;;;;;;;;;19.73;38.45;103428.06;7278534;19;151986;-52
2022/01/22 03:01:24;;;;;;;;;;;;;;;19.69;38.30;103430.50;7273535;19;153475;-51
2022/01/22 03:03:58;;;;;;;;;;;;;;;19.68;38.59;103425.13;7286271;19;153255;-51
2022/01/22 03:06:26;;;;;;;;;;;;;;;19.66;38.37;103422.59;7277701;19;153451;-52
2022/01/22 03:08:54;;;;;;;;;;;;;;;19.65;38.51;103425.63;7276839;19;153884;-51
2022/01/22 03:11:29;;;;;;;;;;;;;;;19.59;38.30;103423.78;7279907;19;151557;-51
2022/01/22 03:19:00;;;;;;;;;;;;;;;19.53;38.31;103417.22;7277352;19;152516;-51
2022/01/22 03:21:38;;;;;;;;;;;;;;;19.52;38.38;103415.50;7278992;19;153114;-51
2022/01/22 03:29:37;;;;;;;;;;;;;;;19.43;38.92;103429.00;7270541;19;152817;-51
2022/01/22 03:32:06;;;;;;;;;;;;;;;19.40;38.76;103437.00;7277004;19;152955;-51
2022/01/22 03:34:40;;;;;;;;;;;;;;;19.39;38.79;103429.69;7278496;19;153260;-51
2022/01/22 03:37:08;;;;;;;;;;;;;;;19.35;38.76;103425.69;7278237;19;153269;-51
2022/01/22 03:39:37;;;;;;;;;;;;;;;19.35;38.70;103425.69;7278336;19;152049;-51
2022/01/22 03:42:05;;;;;;;;;;;;;;;19.32;39.06;103431.75;7276867;19;153435;-52
2022/01/22 03:44:35;;;;;;;;;;;;;;;19.27;39.06;103438.06;7276074;19;154083;-51
2022/01/22 03:47:10;;;;;;;;;;;;;;;19.26;39.30;103438.31;7283377;19;151917;-52
2022/01/22 03:49:42;;;;;;;;;;;;;;;19.24;38.81;103432.09;7277666;19;153844;-51
2022/01/22 03:52:10;;;;;;;;;;;;;;;19.21;39.35;103435.38;7277077;19;152092;-51
2022/01/22 03:54:37;;;;;;;;;;;;;;;19.20;39.33;103439.28;7280270;19;152698;-51
2022/01/22 03:57:04;;;;;;;;;;;;;;;19.15;39.20;103439.13;7282185;19;154339;-52
2022/01/22 03:59:33;;;;;;;;;;;;;;;19.15;39.28;103442.78;7276409;19;153165;-51
2022/01/22 04:04:35;;;;;;;;;;;;;;;19.14;39.24;103448.63;7284755;19;153375;-51
2022/01/22 04:08:06;;;;;;;;;;;;;;;19.09;39.44;103440.94;7284694;19;151939;-51
2022/01/22 04:09:57;;;;;;;;;;;;;;;19.08;39.43;103444.81;7288338;19;153362;-51
2022/01/22 04:12:40;;;;;;;;;;;;;;;19.03;39.67;103441.91;7282673;19;151586;-51
2022/01/22 04:15:12;;;;;;;;;;;;;;;19.02;39.41;103445.78;7284339;19;152907;-52
2022/01/22 04:25:46;;;;;;;;;;;;;;;18.95;39.72;103459.00;7284462;19;152899;-51
2022/01/22 04:28:14;;;;;;;;;;;;;;;18.93;39.64;103469.63;7282336;19;151698;-51
2022/01/22 04:30:41;;;;;;;;;;;;;;;18.90;39.56;103464.47;7276286;19;154583;-52
2022/01/22 04:33:08;;;;;;;;;;;;;;;18.87;39.85;103465.81;7292755;19;154918;-52
2022/01/22 04:35:36;;;;;;;;;;;;;;;18.88;39.76;103469.47;7284094;19;153537;-52
2022/01/22 04:38:04;;;;;;;;;;;;;;;18.85;39.71;103473.56;7280855;19;154821;-51
2022/01/22 04:40:31;;;;;;;;;;;;;;;18.84;39.84;103466.28;7283008;19;152296;-51
2022/01/22 04:43:00;;;;;;;;;;;;;;;18.82;39.62;103476.84;7282615;19;152249;-52
2022/01/22 04:45:45;;;;;;;;;;;;;;;18.81;39.61;103474.28;7279892;19;152802;-52
2022/01/22 04:56:07;;;;;;;;;;;;;;;18.73;39.85;103489.47;7291561;19;151911;-51
2022/01/22 04:58:34;;;;;;;;;;;;;;;18.72;40.08;103481.28;7280363;19;154050;-51
2022/01/22 05:01:01;;;;;;;;;;;;;;;18.70;40.05;103489.94;7281720;19;152848;-51
2022/01/22 05:03:28;;;;;;;;;;;;;;;18.66;40.33;103488.72;7269812;19;156103;-52
2022/01/22 05:05:55;;;;;;;;;;;;;;;18.63;40.30;103480.75;7282286;19;152401;-52
2022/01/22 05:08:23;;;;;;;;;;;;;;;18.63;40.27;103475.16;7280149;19;151842;-51
2022/01/22 05:10:50;;;;;;;;;;;;;;;18.61;40.15;103478.22;7280695;19;154436;-51
2022/01/22 05:13:17;;;;;;;;;;;;;;;18.60;40.63;103484.03;7279668;19;153482;-52
2022/01/22 05:15:44;;;;;;;;;;;;;;;18.57;40.72;103485.38;7281615;19;152053;-52
2022/01/22 05:18:11;;;;;;;;;;;;;;;18.57;40.41;103490.13;7290472;19;152616;-51
2022/01/22 05:20:47;;;;;;;;;;;;;;;18.55;40.65;103487.53;7281927;19;151802;-52
2022/01/22 05:23:19;;;;;;;;;;;;;;;18.54;40.68;103487.75;7283118;19;152986;-52
2022/01/22 05:31:36;;;;;;;;;;;;;;;18.48;40.62;103483.94;7281608;19;153088;-51
2022/01/22 05:38:53;;;;;;;;;;;;;;;18.44;41.06;103473.44;7282570;19;152346;-51
2022/01/22 05:41:20;;;;;;;;;;;;;;;18.44;41.03;103485.47;7289091;19;154770;-51
2022/01/22 05:43:47;;;;;;;;;;;;;;;18.42;41.27;103479.25;7283171;19;153314;-51
2022/01/22 05:46:14;;;;;;;;;;;;;;;18.40;41.26;103487.03;7281763;19;153531;-51
2022/01/22 05:48:41;;;;;;;;;;;;;;;18.40;41.14;103489.81;7274241;19;152298;-52
2022/01/22 05:51:09;;;;;;;;;;;;;;;18.38;40.98;103491.16;7279800;19;154639;-51
2022/01/22 06:01:16;;;;;;;;;;;;;;;18.31;41.13;103507.13;7285261;19;154862;-51
2022/01/22 06:03:46;;;;;;;;;;;;;;;18.30;41.32;103502.66;7268921;19;154439;-51
2022/01/22 06:06:14;;;;;;;;;;;;;;;18.30;41.11;103502.66;7277646;19;154859;-51
2022/01/22 06:08:49;;;;;;;;;;;;;;;18.27;41.52;103498.34;7276835;19;152244;-52
2022/01/22 06:11:22;;;;;;;;;;;;;;;18.28;41.42;103507.63;7278682;19;153685;-51
2022/01/22 06:13:49;;;;;;;;;;;;;;;18.31;41.44;103501.53;7275783;19;153859;-52
2022/01/22 06:16:17;;;;;;;;;;;;;;;18.36;41.83;103504.50;7279279;19;152342;-51
2022/01/22 06:18:44;;;;;;;;;;;;;;;18.38;41.95;103496.75;7277949;19;153389;-51
2022/01/22 06:21:11;;;;;;;;;;;;;;;18.41;42.00;103496.28;7279087;19;153561;-52
2022/01/22 06:23:39;;;;;;;;;;;;;;;18.44;42.19;103505.06;7287100;19;152223;-51
2022/01/22 06:26:07;;;;;;;;;;;;;;;18.48;42.41;103500.72;7278576;19;153290;-51
2022/01/22 06:28:34;;;;;;;;;;;;;;;18.52;42.57;103490.78;7276821;19;151995;-51
2022/01/22 06:31:01;;;;;;;;;;;;;;;18.57;42.74;103492.91;7279579;19;153428;-51
2022/01/22 06:33:28;;;;;;;;;;;;;;;18.61;42.65;103492.22;7277915;19;154112;-52
2022/01/22 06:35:55;;;;;;;;;;;;;;;18.69;43.04;103490.19;7271940;19;153013;-52
2022/01/22 06:38:27;;;;;;;;;;;;;;;18.75;42.84;103495.72;7279716;19;154212;-51
2022/01/22 06:43:32;;;;;;;;;;;;;;;18.89;42.88;103504.81;7282229;19;151560;-52
2022/01/22 06:45:59;;;;;;;;;;;;;;;18.96;42.79;103502.75;7281963;19;153288;-51
2022/01/22 06:48:26;;;;;;;;;;;;;;;19.03;43.13;103501.56;7278487;19;151896;-52
2022/01/22 06:50:54;;;;;;;;;;;;;;;19.10;42.78;103498.69;7278023;19;153373;-51
2022/01/22 06:53:21;;;;;;;;;;;;;;;19.17;42.60;103487.41;7278732;19;153457;-52
2022/01/22 06:55:57;;;;;;;;;;;;;;;19.23;42.50;103498.50;7278718;19;152052;-52
2022/01/22 06:58:25;;;;;;;;;;;;;;;19.32;42.01;103501.81;7279969;19;153411;-52
2022/01/22 07:00:52;;;;;;;;;;;;;;;19.38;41.89;103503.69;7274721;19;153081;-52
2022/01/22 07:03:19;;;;;;;;;;;;;;;19.44;42.12;103499.97;7281397;19;152169;-52
2022/01/22 07:05:47;;;;;;;;;;;;;;;19.50;41.95;103496.19;7273143;19;153554;-52
2022/01/22 07:08:19;;;;;;;;;;;;;;;19.57;41.87;103491.34;7274438;19;153193;-52
2022/01/22 07:10:47;;;;;;;;;;;;;;;19.64;42.10;103494.03;7279744;19;152641;-51
2022/01/22 07:13:15;;;;;;;;;;;;;;;19.70;42.09;103495.88;7279030;19;154053;-52
2022/01/22 07:15:42;;;;;;;;;;;;;;;19.75;41.90;103496.00;7277516;19;152895;-52
2022/01/22 07:18:12;;;;;;;;;;;;;;;19.81;42.07;103503.44;7278020;19;153009;-51
2022/01/22 07:20:41;;;;;;;;;;;;;;;19.87;41.65;103499.69;7278222;19;153395;-52
2022/01/22 07:23:17;;;;;;;;;;;;;;;19.92;41.59;103502.63;7279307;19;153150;-51
2022/01/22 07:25:45;;;;;;;;;;;;;;;19.98;41.45;103502.53;7278626;19;153626;-52
2022/01/22 07:28:12;;;;;;;;;;;;;;;20.04;41.65;103500.66;7278638;19;153210;-52
2022/01/22 07:30:40;;;;;;;;;;;;;;;20.10;41.70;103510.94;7291648;19;151770;-51
2022/01/22 07:33:07;;;;;;;;;;;;;;;20.16;41.52;103509.97;7284466;19;153904;-51
2022/01/22 07:35:34;;;;;;;;;;;;;;;20.20;40.98;103501.91;7282982;19;152050;-51
2022/01/22 07:38:02;;;;;;;;;;;;;;;20.23;40.92;103502.28;7287167;19;153449;-52
2022/01/22 07:40:29;;;;;;;;;;;;;;;20.29;41.32;103506.06;7276834;19;154701;-51
2022/01/22 07:42:57;;;;;;;;;;;;;;;20.33;41.17;103505.38;7286816;19;152184;-51
2022/01/22 07:45:24;;;;;;;;;;;;;;;20.38;40.85;103504.63;7281264;19;152314;-51
2022/01/22 07:47:52;;;;;;;;;;;;;;;20.42;40.74;103503.03;7283854;19;154209;-51
2022/01/22 07:50:19;;;;;;;;;;;;;;;20.47;40.67;103494.72;7283975;19;152067;-51
2022/01/22 07:52:46;;;;;;;;;;;;;;;20.52;40.89;103496.78;7292755;19;153373;-51
2022/01/22 07:55:13;;;;;;;;;;;;;;;20.55;40.53;103488.72;7281760;19;152005;-51
2022/01/22 07:57:41;;;;;;;;;;;;;;;20.58;40.87;103488.22;7284564;19;154261;-52
2022/01/22 08:00:08;;;;;;;;;;;;;;;20.63;40.50;103499.56;7284405;19;153377;-51
2022/01/22 08:02:36;;;;;;;;;;;;;;;20.68;40.86;103507.25;7285743;19;152213;-51
2022/01/22 08:05:09;;;;;;;;;;;;;;;20.72;40.49;103500.91;7280790;19;153007;-52
2022/01/22 08:07:38;;;;;;;;;;;;;;;20.76;40.30;103495.63;7283180;19;153983;-52
2022/01/22 08:10:10;;;;;;;;;;;;;;;20.81;40.42;103492.94;7273092;19;153399;-51
2022/01/22 08:12:38;;;;;;;;;;;;;;;20.83;40.87;103497.22;7291557;19;153361;-51
2022/01/22 08:15:07;;;;;;;;;;;;;;;20.85;40.39;103495.00;7281166;19;152764;-51
2022/01/22 08:17:34;;;;;;;;;;;;;;;20.89;40.38;103486.09;7283790;19;153372;-51
2022/01/22 08:20:02;;;;;;;;;;;;;;;20.90;40.75;103474.56;7284392;19;153233;-52
2022/01/22 08:22:29;;;;;;;;;;;;;;;20.92;40.50;103478.00;7285559;19;151976;-52
2022/01/22 08:24:59;;;;;;;;;;;;;;;20.95;40.60;103485.06;7285728;19;152800;-51
2022/01/22 08:29:55;;;;;;;;;;;;;;;20.97;40.44;103486.53;7282731;19;152150;-51
2022/01/22 08:32:34;;;;;;;;;;;;;;;20.98;40.39;103479.84;7285882;19;155395;-52
2022/01/22 08:37:47;;;;;;;;;;;;;;;20.99;39.94;103489.94;7285754;19;152754;-51
2022/01/22 08:40:22;;;;;;;;;;;;;;;20.99;40.18;103481.50;7282457;19;154136;-52
2022/01/22 08:42:51;;;;;;;;;;;;;;;20.99;39.75;103484.31;7277631;19;152226;-52
2022/01/22 08:45:18;;;;;;;;;;;;;;;21.00;39.90;103488.00;7283546;19;153538;-52
2022/01/22 08:47:46;;;;;;;;;;;;;;;20.98;39.74;103487.41;7282739;19;153492;-51
2022/01/22 08:50:23;;;;;;;;;;;;;;;20.98;40.00;103488.25;7285546;19;152747;-52
2022/01/22 08:52:59;;;;;;;;;;;;;;;20.97;40.21;103485.69;7283161;19;153746;-51
2022/01/22 08:55:27;;;;;;;;;;;;;;;20.95;40.08;103496.31;7282281;19;154174;-52
2022/01/22 08:57:54;;;;;;;;;;;;;;;20.94;40.01;103498.25;7290210;19;152202;-52
2022/01/22 09:00:22;;;;;;;;;;;;;;;20.94;39.94;103497.44;7279195;19;152743;-52
2022/01/22 09:02:49;;;;;;;;;;;;;;;20.92;39.96;103499.63;7282804;19;152648;-52
2022/01/22 09:05:19;;;;;;;;;;;;;;;20.90;40.01;103513.06;7281219;19;153645;-52
2022/01/22 09:07:47;;;;;;;;;;;;;;;20.89;39.65;103514.19;7277673;19;155349;-52
2022/01/22 09:10:15;;;;;;;;;;;;;;;20.87;39.73;103511.63;7281866;19;151846;-52
2022/01/22 09:12:43;;;;;;;;;;;;;;;20.84;39.55;103515.78;7274401;19;152768;-52
2022/01/22 09:15:10;;;;;;;;;;;;;;;20.83;39.92;103513.22;7282281;19;153640;-52
2022/01/22 09:17:37;;;;;;;;;;;;;;;20.81;39.76;103521.88;7282030;19;152001;-52
2022/01/22 09:20:09;;;;;;;;;;;;;;;20.79;39.92;103521.31;7290331;19;152649;-51
2022/01/22 09:22:38;;;;;;;;;;;;;;;20.76;40.04;103524.59;7279672;19;151899;-51
2022/01/22 09:25:15;;;;;;;;;;;;;;;20.75;39.64;103527.66;7282286;19;153443;-52
2022/01/22 09:27:45;;;;;;;;;;;;;;;20.73;39.90;103530.72;7281696;19;154172;-52
2022/01/22 09:30:14;;;;;;;;;;;;;;;20.71;39.74;103521.69;7280192;19;152197;-52
2022/01/22 09:32:44;;;;;;;;;;;;;;;20.70;39.98;103514.34;7280953;19;152334;-52
2022/01/22 09:35:12;;;;;;;;;;;;;;;20.68;40.44;103522.16;7282587;19;154728;-52
2022/01/22 09:37:46;;;;;;;;;;;;;;;20.66;40.54;103521.56;7281739;19;151942;-51
2022/01/22 09:40:14;;;;;;;;;;;;;;;20.64;40.51;103529.38;7277458;19;152743;-52
2022/01/22 09:42:45;;;;;;;;;;;;;;;20.61;40.49;103524.25;7289554;19;153399;-52
2022/01/22 09:45:15;;;;;;;;;;;;;;;20.58;40.57;103527.53;7274004;19;153113;-52
2022/01/22 09:47:46;;;;;;;;;;;;;;;20.57;40.52;103527.81;7278572;19;154366;-52
2022/01/22 09:50:13;;;;;;;;;;;;;;;20.56;40.80;103528.91;7280908;19;152423;-52
2022/01/22 09:52:40;;;;;;;;;;;;;;;20.52;40.92;103531.34;7280135;19;152653;-52
2022/01/22 09:55:10;;;;;;;;;;;;;;;20.49;40.82;103540.25;7281611;19;155073;-52
2022/01/22 09:57:37;;;;;;;;;;;;;;;20.47;40.47;103536.00;7276450;19;152501;-51
2022/01/22 10:00:07;;;;;;;;;;;;;;;20.47;40.44;103542.47;7282712;19;152670;-52
2022/01/22 10:02:45;;;;;;;;;;;;;;;20.45;39.64;103546.59;7277503;19;153296;-52
2022/01/22 10:05:32;;;;;;;;;;;;;;;20.43;39.53;103549.69;7285700;19;151994;-53
2022/01/22 10:08:19;;;;;;;;;;;;;;;20.41;39.38;103538.69;7277042;19;153368;-53
2022/01/22 10:10:46;;;;;;;;;;;;;;;20.42;39.15;103533.91;7279871;19;152100;-53
2022/01/22 10:13:14;;;;;;;;;;;;;;;20.44;39.01;103530.88;7286615;19;152999;-52
2022/01/22 10:15:43;;;;;;;;;;;;;;;20.44;39.18;103523.31;7282989;19;153320;-53
2022/01/22 10:18:10;;;;;;;;;;;;;;;20.47;38.79;103534.03;7285203;19;152543;-53
2022/01/22 10:20:39;;;;;;;;;;;;;;;20.48;38.96;103537.72;7285670;19;152086;-52
2022/01/22 10:23:10;;;;;;;;;;;;;;;20.50;38.86;103532.69;7284254;19;154173;-52
2022/01/22 10:25:43;;;;;;;;;;;;;;;20.51;38.43;103524.03;7292501;19;152407;-53
2022/01/22 10:28:16;;;;;;;;;;;;;;;20.54;38.57;103520.72;7280806;19;152830;-52
2022/01/22 10:30:45;;;;;;;;;;;;;;;20.56;38.19;103526.09;7280388;19;152048;-53
2022/01/22 10:33:23;;;;;;;;;;;;;;;20.58;38.36;103527.53;7281764;19;151908;-53
2022/01/22 10:35:52;;;;;;;;;;;;;;;20.61;37.79;103535.50;7280717;19;153241;-53
2022/01/22 10:38:21;;;;;;;;;;;;;;;20.64;37.80;103534.13;7280265;19;152143;-53
2022/01/22 10:40:55;;;;;;;;;;;;;;;20.66;37.89;103530.00;7281448;19;152964;-53
2022/01/22 10:46:08;;;;;;;;;;;;;;;20.70;37.71;103517.16;7280904;19;151945;-52
2022/01/22 10:48:38;;;;;;;;;;;;;;;20.73;37.32;103513.00;7283248;19;154108;-53
2022/01/22 10:51:06;;;;;;;;;;;;;;;20.75;37.16;103519.22;7276572;19;152228;-53
2022/01/22 10:53:45;;;;;;;;;;;;;;;20.77;37.22;103515.06;7276311;19;152694;-52
2022/01/22 10:56:17;;;;;;;;;;;;;;;20.78;37.05;103505.53;7276494;19;155267;-52
2022/01/22 10:58:50;;;;;;;;;;;;;;;20.81;36.96;103519.09;7281925;19;151931;-53
2022/01/22 11:01:24;;;;;;;;;;;;;;;20.83;36.91;103519.69;7278134;19;154018;-53
2022/01/22 11:04:02;;;;;;;;;;;;;;;20.86;37.12;103518.34;7275114;19;153008;-53
2022/01/22 11:06:28;;;;;;;;;;;;;;;20.87;36.76;103508.81;7280323;19;152118;-53
2022/01/22 11:08:55;;;;;;;;;;;;;;;20.90;36.69;103507.44;7276151;19;152593;-53
2022/01/22 11:11:23;;;;;;;;;;;;;;;20.93;36.74;103507.81;7281303;19;154575;-53
2022/01/22 11:13:50;;;;;;;;;;;;;;;20.95;36.75;103507.56;7274588;19;153142;-53
2022/01/22 11:16:19;;;;;;;;;;;;;;;20.96;36.86;103504.50;7273434;19;153452;-52
2022/01/22 11:19:07;;;;;;;;;;;;;;;21.00;36.76;103513.28;7278216;19;151647;-53
2022/01/22 11:21:36;;;;;;;;;;;;;;;20.96;36.23;103500.84;7277935;19;153427;-53
2022/01/22 11:24:04;;;;;;;;;;;;;;;20.99;36.12;103500.34;7276831;19;152174;-53
2022/01/22 11:26:31;;;;;;;;;;;;;;;21.01;36.27;103496.19;7275415;19;152683;-53
2022/01/22 11:28:58;;;;;;;;;;;;;;;21.03;36.02;103502.38;7274298;19;155351;-53
2022/01/22 11:31:26;;;;;;;;;;;;;;;21.04;35.79;103504.09;7271465;19;153154;-53
2022/01/22 11:33:54;;;;;;;;;;;;;;;21.08;36.17;103501.63;7287852;19;152140;-53
2022/01/22 11:36:25;;;;;;;;;;;;;;;21.11;36.05;103501.16;7277608;19;154166;-53
2022/01/22 11:38:54;;;;;;;;;;;;;;;21.12;35.91;103498.09;7272777;19;152121;-53
2022/01/22 11:41:23;;;;;;;;;;;;;;;21.16;36.18;103495.69;7277796;19;152915;-53
2022/01/22 11:44:17;;;;;;;;;;;;;;;21.19;35.88;103497.97;7278256;19;152313;-53
2022/01/22 11:46:52;;;;;;;;;;;;;;;21.20;36.00;103489.31;7277001;19;151820;-53
2022/01/22 11:49:26;;;;;;;;;;;;;;;21.22;36.10;103500.28;7276460;19;153523;-53
2022/01/22 11:52:13;;;;;;;;;;;;;;;21.25;36.16;103511.03;7278225;19;152374;-53
2022/01/22 11:54:52;;;;;;;;;;;;;;;21.27;36.10;103494.75;7276234;19;152083;-53
2022/01/22 11:57:20;;;;;;;;;;;;;;;21.29;35.68;103498.19;7284573;19;152011;-53
2022/01/22 12:00:17;;;;;;;;;;;;;;;21.32;35.83;103500.47;7276946;19;152155;-53
2022/01/22 12:02:44;;;;;;;;;;;;;;;21.34;35.78;103501.09;7278569;19;152684;-53
2022/01/22 12:05:11;;;;;;;;;;;;;;;21.38;35.57;103507.94;7277171;19;154076;-53
2022/01/22 12:07:37;;;;;;;;;;;;;;;21.40;35.49;103497.25;7277517;19;151796;-53
2022/01/22 12:10:35;;;;;;;;;;;;;;;21.43;35.59;103505.22;7272892;19;152181;-53
2022/01/22 12:16:11;;;;;;;;;;;;;;;21.50;35.87;103493.78;7281239;19;151839;-53
2022/01/22 12:18:50;;;;;;;;;;;;;;;21.51;35.93;103501.97;7282545;19;152078;-53
2022/01/22 12:21:35;;;;;;;;;;;;;;;21.53;36.06;103502.56;7291868;19;152103;-53
2022/01/22 12:24:04;;;;;;;;;;;;;;;21.56;35.56;103496.44;7281773;19;153123;-53
2022/01/22 12:26:42;;;;;;;;;;;;;;;21.58;35.75;103499.84;7281169;19;153328;-53
2022/01/22 12:29:19;;;;;;;;;;;;;;;21.61;35.76;103510.63;7282741;19;152982;-53
2022/01/22 12:32:07;;;;;;;;;;;;;;;21.62;36.17;103503.03;7282756;19;152703;-53
2022/01/22 12:34:55;;;;;;;;;;;;;;;21.61;36.09;103505.00;7283801;19;152841;-52
2022/01/22 12:37:22;;;;;;;;;;;;;;;21.63;35.82;103499.09;7283737;19;152023;-53
2022/01/22 12:39:54;;;;;;;;;;;;;;;21.63;35.56;103497.13;7284728;19;154062;-53
2022/01/22 12:42:33;;;;;;;;;;;;;;;21.63;35.54;103505.56;7290002;19;153196;-53
2022/01/22 12:45:05;;;;;;;;;;;;;;;21.63;35.43;103504.72;7282642;19;153043;-53
2022/01/22 12:47:36;;;;;;;;;;;;;;;21.62;35.48;103503.84;7279488;19;152347;-53
2022/01/22 12:50:05;;;;;;;;;;;;;;;21.61;35.14;103504.13;7283312;19;151861;-53
2022/01/22 12:52:34;;;;;;;;;;;;;;;21.60;35.47;103502.41;7284111;19;152559;-53
2022/01/22 12:55:24;;;;;;;;;;;;;;;21.59;35.07;103507.19;7283156;19;153260;-53
2022/01/22 12:57:57;;;;;;;;;;;;;;;21.56;35.10;103516.16;7281997;19;152125;-53
2022/01/22 13:00:24;;;;;;;;;;;;;;;21.55;35.03;103508.81;7284370;19;152814;-53
2022/01/22 13:02:56;;;;;;;;;;;;;;;21.54;35.06;103509.03;7279115;19;154244;-52
2022/01/22 13:05:24;;;;;;;;;;;;;;;21.51;35.44;103507.59;7291322;19;152210;-53
2022/01/22 13:07:57;;;;;;;;;;;;;;;21.49;35.19;103507.00;7283142;19;152437;-53
2022/01/22 13:10:33;;;;;;;;;;;;;;;21.46;35.14;103510.31;7278928;19;155243;-52
2022/01/22 13:13:08;;;;;;;;;;;;;;;21.44;35.23;103509.72;7281447;19;152083;-53
2022/01/22 13:15:45;;;;;;;;;;;;;;;21.41;34.97;103504.59;7280380;19;153663;-53
2022/01/22 13:18:12;;;;;;;;;;;;;;;21.38;35.45;103509.88;7283181;19;152333;-53
2022/01/22 13:20:41;;;;;;;;;;;;;;;21.35;35.15;103505.59;7282876;19;152403;-54
2022/01/22 13:23:14;;;;;;;;;;;;;;;21.32;34.94;103503.28;7281066;19;153738;-53
2022/01/22 13:25:42;;;;;;;;;;;;;;;21.29;35.33;103499.03;7280514;19;152137;-53
2022/01/22 13:28:14;;;;;;;;;;;;;;;21.24;35.24;103493.31;7289816;19;151660;-52
2022/01/22 13:30:48;;;;;;;;;;;;;;;21.21;35.33;103504.22;7280947;19;151889;-53
2022/01/22 13:33:33;;;;;;;;;;;;;;;21.20;35.50;103509.00;7283473;19;152578;-52
2022/01/22 13:49:45;;;;;;;;;;;;;;;21.02;36.13;103500.72;7281227;19;153836;-52
2022/01/22 13:52:16;;;;;;;;;;;;;;;21.00;36.22;103505.72;7289188;19;153289;-52
2022/01/22 13:54:44;;;;;;;;;;;;;;;20.99;36.11;103497.53;7282642;19;152050;-52
2022/01/22 13:57:16;;;;;;;;;;;;;;;20.97;36.27;103496.94;7278843;19;153359;-52
2022/01/22 13:59:47;;;;;;;;;;;;;;;20.95;36.44;103497.16;7281782;19;151914;-53
2022/01/22 14:02:27;;;;;;;;;;;;;;;20.94;36.29;103494.63;7282615;19;152268;-52
2022/01/22 14:04:56;;;;;;;;;;;;;;;20.90;36.58;103491.44;7281460;19;153959;-52
2022/01/22 14:07:36;;;;;;;;;;;;;;;20.90;36.75;103497.06;7282526;19;151907;-52
2022/01/22 14:10:05;;;;;;;;;;;;;;;20.88;36.52;103495.63;7278412;19;154096;-52
2022/01/22 14:15:24;;;;;;;;;;;;;;;20.83;36.79;103510.41;7288795;19;152043;-52
2022/01/22 14:18:05;;;;;;;;;;;;;;;20.80;37.06;103492.06;7277931;19;153495;-52
2022/01/22 14:20:38;;;;;;;;;;;;;;;20.78;36.94;103485.00;7282726;19;152161;-53
2022/01/22 14:23:16;;;;;;;;;;;;;;;20.76;37.21;103485.25;7279926;19;153192;-51
2022/01/22 14:25:55;;;;;;;;;;;;;;;20.73;37.28;103494.19;7280750;19;152255;-51
2022/01/22 14:28:44;;;;;;;;;;;;;;;20.71;37.30;103487.13;7282029;19;152170;-52
2022/01/22 14:31:22;;;;;;;;;;;;;;;20.68;37.46;103485.66;7280544;19;153832;-51
2022/01/22 14:33:58;;;;;;;;;;;;;;;20.65;37.08;103477.72;7279753;19;153244;-52
2022/01/22 14:36:29;;;;;;;;;;;;;;;20.64;37.39;103476.00;7289893;19;152156;-53
2022/01/22 14:39:14;;;;;;;;;;;;;;;20.59;37.38;103473.09;7278656;19;153698;-53
2022/01/22 14:44:32;;;;;;;;;;;;;;;20.55;37.54;103457.81;7284191;19;151714;-51
2022/01/22 14:47:02;;;;;;;;;;;;;;;20.51;37.56;103453.81;7281444;19;153251;-52
2022/01/22 14:49:34;;;;;;;;;;;;;;;20.50;37.18;103454.03;7283427;19;151924;-52